sensor_id;sensor_type;location;lat;lon;timestamp;temperature;humidity
78184;DHT22;67442;44.570;18.610;2023-04-01T00:00:14;22.80;63.80
78184;DHT22;67442;44.570;18.610;2023-04-01T00:02:42;22.70;63.80
78184;DHT22;67442;44.570;18.610;2023-04-01T00:05:15;22.70;63.80
78184;DHT22;67442;44.570;18.610;2023-04-01T00:07:42;22.70;63.90
78184;DHT22;67442;44.570;18.610;2023-04-01T00:10:12;22.70;63.90
78184;DHT22;67442;44.570;18.610;2023-04-01T00:12:39;22.70;63.90
78184;DHT22;67442;44.570;18.610;2023-04-01T00:15:08;22.70;63.80
78184;DHT22;67442;44.570;18.610;2023-04-01T00:17:36;22.70;63.70
78184;DHT22;67442;44.570;18.610;2023-04-01T00:20:04;22.70;63.70
78184;DHT22;67442;44.570;18.610;2023-04-01T00:22:32;22.80;63.80
78184;DHT22;67442;44.570;18.610;2023-04-01T00:25:00;22.70;63.60
78184;DHT22;67442;44.570;18.610;2023-04-01T00:27:27;22.70;63.80
78184;DHT22;67442;44.570;18.610;2023-04-01T00:29:53;22.80;63.80
78184;DHT22;67442;44.570;18.610;2023-04-01T00:32:20;22.70;63.80
78184;DHT22;67442;44.570;18.610;2023-04-01T00:34:50;22.70;63.80
78184;DHT22;67442;44.570;18.610;2023-04-01T00:37:19;22.70;63.80
78184;DHT22;67442;44.570;18.610;2023-04-01T00:39:50;22.80;63.80
78184;DHT22;67442;44.570;18.610;2023-04-01T00:42:16;22.70;63.80
78184;DHT22;67442;44.570;18.610;2023-04-01T00:44:52;22.80;63.80
78184;DHT22;67442;44.570;18.610;2023-04-01T00:47:19;22.70;63.60
78184;DHT22;67442;44.570;18.610;2023-04-01T00:49:52;22.70;63.60
78184;DHT22;67442;44.570;18.610;2023-04-01T00:52:23;22.80;63.80
78184;DHT22;67442;44.570;18.610;2023-04-01T00:54:56;22.80;63.80
78184;DHT22;67442;44.570;18.610;2023-04-01T00:57:31;22.70;63.80
78184;DHT22;67442;44.570;18.610;2023-04-01T00:59:59;22.70;63.80
78184;DHT22;67442;44.570;18.610;2023-04-01T01:02:32;22.70;63.90
78184;DHT22;67442;44.570;18.610;2023-04-01T01:05:04;22.70;63.80
78184;DHT22;67442;44.570;18.610;2023-04-01T01:10:29;22.70;63.70
78184;DHT22;67442;44.570;18.610;2023-04-01T01:13:11;22.70;63.70
78184;DHT22;67442;44.570;18.610;2023-04-01T01:23:57;22.70;63.80
78184;DHT22;67442;44.570;18.610;2023-04-01T01:37:22;22.80;63.80
78184;DHT22;67442;44.570;18.610;2023-04-01T01:40:01;22.80;63.90
78184;DHT22;67442;44.570;18.610;2023-04-01T01:42:31;22.80;64.00
78184;DHT22;67442;44.570;18.610;2023-04-01T01:45:00;22.80;64.00
78184;DHT22;67442;44.570;18.610;2023-04-01T01:47:30;22.70;64.00
78184;DHT22;67442;44.570;18.610;2023-04-01T01:49:57;22.80;64.10
78184;DHT22;67442;44.570;18.610;2023-04-01T01:52:27;22.70;64.00
78184;DHT22;67442;44.570;18.610;2023-04-01T01:54:58;22.70;63.90
78184;DHT22;67442;44.570;18.610;2023-04-01T01:57:36;22.70;63.90
78184;DHT22;67442;44.570;18.610;2023-04-01T02:00:23;22.70;63.80
78184;DHT22;67442;44.570;18.610;2023-04-01T02:02:51;22.70;63.80
78184;DHT22;67442;44.570;18.610;2023-04-01T02:05:21;22.70;63.80
78184;DHT22;67442;44.570;18.610;2023-04-01T02:08:27;22.80;63.80
78184;DHT22;67442;44.570;18.610;2023-04-01T02:11:01;22.70;63.80
78184;DHT22;67442;44.570;18.610;2023-04-01T02:13:35;22.80;63.90
78184;DHT22;67442;44.570;18.610;2023-04-01T02:16:34;22.70;63.90
78184;DHT22;67442;44.570;18.610;2023-04-01T02:19:05;22.80;63.80
78184;DHT22;67442;44.570;18.610;2023-04-01T02:21:37;22.70;63.80
78184;DHT22;67442;44.570;18.610;2023-04-01T02:24:08;22.80;63.80
78184;DHT22;67442;44.570;18.610;2023-04-01T02:26:37;22.80;63.80
78184;DHT22;67442;44.570;18.610;2023-04-01T02:29:05;22.80;63.80
78184;DHT22;67442;44.570;18.610;2023-04-01T02:31:34;22.80;63.80
78184;DHT22;67442;44.570;18.610;2023-04-01T02:34:05;22.70;63.90
78184;DHT22;67442;44.570;18.610;2023-04-01T02:36:34;22.70;63.90
78184;DHT22;67442;44.570;18.610;2023-04-01T02:39:06;22.70;63.90
78184;DHT22;67442;44.570;18.610;2023-04-01T02:41:39;22.70;63.90
78184;DHT22;67442;44.570;18.610;2023-04-01T02:44:08;22.70;63.80
78184;DHT22;67442;44.570;18.610;2023-04-01T02:46:35;22.70;63.80
78184;DHT22;67442;44.570;18.610;2023-04-01T02:49:03;22.80;63.80
78184;DHT22;67442;44.570;18.610;2023-04-01T02:51:34;22.80;63.80
78184;DHT22;67442;44.570;18.610;2023-04-01T02:54:01;22.80;63.70
78184;DHT22;67442;44.570;18.610;2023-04-01T02:56:31;22.80;63.80
78184;DHT22;67442;44.570;18.610;2023-04-01T02:58:58;22.80;63.80
78184;DHT22;67442;44.570;18.610;2023-04-01T03:01:26;22.80;63.90
78184;DHT22;67442;44.570;18.610;2023-04-01T03:03:53;22.70;63.80
78184;DHT22;67442;44.570;18.610;2023-04-01T03:06:25;22.80;63.70
78184;DHT22;67442;44.570;18.610;2023-04-01T03:08:51;22.80;63.80
78184;DHT22;67442;44.570;18.610;2023-04-01T03:11:18;22.80;63.70
78184;DHT22;67442;44.570;18.610;2023-04-01T03:13:46;22.80;63.60
78184;DHT22;67442;44.570;18.610;2023-04-01T03:16:17;22.80;63.60
78184;DHT22;67442;44.570;18.610;2023-04-01T03:18:44;22.80;63.70
78184;DHT22;67442;44.570;18.610;2023-04-01T03:21:18;22.80;63.70
78184;DHT22;67442;44.570;18.610;2023-04-01T03:23:46;22.80;63.80
78184;DHT22;67442;44.570;18.610;2023-04-01T03:26:13;22.80;63.80
78184;DHT22;67442;44.570;18.610;2023-04-01T03:28:41;22.70;63.80
78184;DHT22;67442;44.570;18.610;2023-04-01T03:31:08;22.80;63.80
78184;DHT22;67442;44.570;18.610;2023-04-01T03:33:35;22.80;63.80
78184;DHT22;67442;44.570;18.610;2023-04-01T03:36:02;22.80;64.60
78184;DHT22;67442;44.570;18.610;2023-04-01T03:38:35;22.80;63.70
78184;DHT22;67442;44.570;18.610;2023-04-01T03:41:02;22.80;63.80
78184;DHT22;67442;44.570;18.610;2023-04-01T03:43:29;22.80;63.80
78184;DHT22;67442;44.570;18.610;2023-04-01T03:45:56;22.80;63.80
78184;DHT22;67442;44.570;18.610;2023-04-01T03:48:27;22.70;63.70
78184;DHT22;67442;44.570;18.610;2023-04-01T03:50:58;22.80;63.80
78184;DHT22;67442;44.570;18.610;2023-04-01T03:53:25;22.70;63.60
78184;DHT22;67442;44.570;18.610;2023-04-01T03:55:53;22.80;63.70
78184;DHT22;67442;44.570;18.610;2023-04-01T03:58:24;22.80;63.70
78184;DHT22;67442;44.570;18.610;2023-04-01T04:00:52;22.80;63.80
78184;DHT22;67442;44.570;18.610;2023-04-01T04:03:19;22.80;63.80
78184;DHT22;67442;44.570;18.610;2023-04-01T04:05:48;22.80;63.70
78184;DHT22;67442;44.570;18.610;2023-04-01T04:08:15;22.80;63.70
78184;DHT22;67442;44.570;18.610;2023-04-01T04:10:42;22.80;63.80
78184;DHT22;67442;44.570;18.610;2023-04-01T04:13:09;22.80;63.70
78184;DHT22;67442;44.570;18.610;2023-04-01T04:15:37;22.80;63.80
78184;DHT22;67442;44.570;18.610;2023-04-01T04:18:05;22.80;63.70
78184;DHT22;67442;44.570;18.610;2023-04-01T04:20:32;22.80;63.70
78184;DHT22;67442;44.570;18.610;2023-04-01T04:23:00;22.80;63.70
78184;DHT22;67442;44.570;18.610;2023-04-01T04:25:27;22.80;63.70
78184;DHT22;67442;44.570;18.610;2023-04-01T04:27:54;22.80;63.80
78184;DHT22;67442;44.570;18.610;2023-04-01T04:30:22;22.80;63.80
78184;DHT22;67442;44.570;18.610;2023-04-01T04:32:53;22.80;63.80
78184;DHT22;67442;44.570;18.610;2023-04-01T04:35:20;22.80;63.80
78184;DHT22;67442;44.570;18.610;2023-04-01T04:37:48;22.80;63.90
78184;DHT22;67442;44.570;18.610;2023-04-01T04:40:15;22.80;63.90
78184;DHT22;67442;44.570;18.610;2023-04-01T04:42:43;22.80;63.90
78184;DHT22;67442;44.570;18.610;2023-04-01T04:45:12;22.80;64.00
78184;DHT22;67442;44.570;18.610;2023-04-01T04:47:39;22.80;64.00
78184;DHT22;67442;44.570;18.610;2023-04-01T04:50:08;22.80;64.00
78184;DHT22;67442;44.570;18.610;2023-04-01T04:52:36;22.80;64.20
78184;DHT22;67442;44.570;18.610;2023-04-01T04:55:04;22.80;64.10
78184;DHT22;67442;44.570;18.610;2023-04-01T04:57:31;22.80;64.20
78184;DHT22;67442;44.570;18.610;2023-04-01T04:59:58;22.80;64.20
78184;DHT22;67442;44.570;18.610;2023-04-01T05:02:25;22.80;64.30
78184;DHT22;67442;44.570;18.610;2023-04-01T05:04:52;22.80;64.30
78184;DHT22;67442;44.570;18.610;2023-04-01T05:07:20;22.80;64.30
78184;DHT22;67442;44.570;18.610;2023-04-01T05:09:51;22.80;64.30
78184;DHT22;67442;44.570;18.610;2023-04-01T05:12:17;22.70;64.30
78184;DHT22;67442;44.570;18.610;2023-04-01T05:14:48;22.80;64.30
78184;DHT22;67442;44.570;18.610;2023-04-01T05:17:15;22.80;64.40
78184;DHT22;67442;44.570;18.610;2023-04-01T05:19:43;22.70;64.30
78184;DHT22;67442;44.570;18.610;2023-04-01T05:22:10;22.70;64.40
78184;DHT22;67442;44.570;18.610;2023-04-01T05:24:41;22.70;64.40
78184;DHT22;67442;44.570;18.610;2023-04-01T05:27:09;22.70;64.40
78184;DHT22;67442;44.570;18.610;2023-04-01T05:29:36;22.70;64.40
78184;DHT22;67442;44.570;18.610;2023-04-01T05:32:03;22.70;64.40
78184;DHT22;67442;44.570;18.610;2023-04-01T05:34:30;22.70;64.50
78184;DHT22;67442;44.570;18.610;2023-04-01T05:36:57;22.70;64.40
78184;DHT22;67442;44.570;18.610;2023-04-01T05:39:28;22.70;64.40
78184;DHT22;67442;44.570;18.610;2023-04-01T05:41:55;22.70;64.40
78184;DHT22;67442;44.570;18.610;2023-04-01T05:44:21;22.70;64.50
78184;DHT22;67442;44.570;18.610;2023-04-01T05:46:49;22.70;64.50
78184;DHT22;67442;44.570;18.610;2023-04-01T05:49:17;22.70;64.50
78184;DHT22;67442;44.570;18.610;2023-04-01T05:51:44;22.70;64.60
78184;DHT22;67442;44.570;18.610;2023-04-01T05:54:11;22.70;64.60
78184;DHT22;67442;44.570;18.610;2023-04-01T05:56:39;22.70;64.60
78184;DHT22;67442;44.570;18.610;2023-04-01T05:59:06;22.70;64.60
78184;DHT22;67442;44.570;18.610;2023-04-01T06:01:34;22.70;64.60
78184;DHT22;67442;44.570;18.610;2023-04-01T06:04:05;22.70;64.70
78184;DHT22;67442;44.570;18.610;2023-04-01T06:06:36;22.70;64.70
78184;DHT22;67442;44.570;18.610;2023-04-01T06:17:35;22.70;64.70
78184;DHT22;67442;44.570;18.610;2023-04-01T06:36:52;22.60;64.90
78184;DHT22;67442;44.570;18.610;2023-04-01T06:45:14;22.70;64.90
78184;DHT22;67442;44.570;18.610;2023-04-01T06:56:21;22.70;64.90
78184;DHT22;67442;44.570;18.610;2023-04-01T06:58:57;22.60;64.90
78184;DHT22;67442;44.570;18.610;2023-04-01T07:01:43;22.70;64.90
78184;DHT22;67442;44.570;18.610;2023-04-01T07:04:31;22.60;64.80
78184;DHT22;67442;44.570;18.610;2023-04-01T07:07:05;22.60;64.70
78184;DHT22;67442;44.570;18.610;2023-04-01T07:09:41;22.60;64.70
78184;DHT22;67442;44.570;18.610;2023-04-01T07:12:18;22.60;64.60
78184;DHT22;67442;44.570;18.610;2023-04-01T07:14:48;22.60;64.60
78184;DHT22;67442;44.570;18.610;2023-04-01T07:17:31;22.60;64.60
78184;DHT22;67442;44.570;18.610;2023-04-01T07:20:19;22.60;64.50
78184;DHT22;67442;44.570;18.610;2023-04-01T07:23:02;22.60;64.50
78184;DHT22;67442;44.570;18.610;2023-04-01T07:25:41;22.60;64.50
78184;DHT22;67442;44.570;18.610;2023-04-01T07:28:13;22.60;64.40
78184;DHT22;67442;44.570;18.610;2023-04-01T07:31:08;22.60;64.30
78184;DHT22;67442;44.570;18.610;2023-04-01T07:36:39;22.60;64.30
78184;DHT22;67442;44.570;18.610;2023-04-01T07:44:59;22.60;64.20
78184;DHT22;67442;44.570;18.610;2023-04-01T07:58:05;22.60;64.00
78184;DHT22;67442;44.570;18.610;2023-04-01T08:06:40;22.60;64.30
78184;DHT22;67442;44.570;18.610;2023-04-01T08:09:48;22.60;64.30
78184;DHT22;67442;44.570;18.610;2023-04-01T08:23:33;22.60;64.30
78184;DHT22;67442;44.570;18.610;2023-04-01T08:31:43;22.50;64.10
78184;DHT22;67442;44.570;18.610;2023-04-01T08:34:32;22.50;64.00
78184;DHT22;67442;44.570;18.610;2023-04-01T08:37:05;22.50;64.00
78184;DHT22;67442;44.570;18.610;2023-04-01T08:45:42;22.50;63.80
78184;DHT22;67442;44.570;18.610;2023-04-01T08:54:10;22.50;63.80
78184;DHT22;67442;44.570;18.610;2023-04-01T09:05:58;22.60;63.70
78184;DHT22;67442;44.570;18.610;2023-04-01T09:11:33;22.50;63.60
78184;DHT22;67442;44.570;18.610;2023-04-01T09:25:04;22.60;63.60
78184;DHT22;67442;44.570;18.610;2023-04-01T09:27:43;22.60;63.60
78184;DHT22;67442;44.570;18.610;2023-04-01T09:38:32;22.60;63.60
78184;DHT22;67442;44.570;18.610;2023-04-01T09:52:24;22.70;64.20
78184;DHT22;67442;44.570;18.610;2023-04-01T10:11:50;22.70;65.20
78184;DHT22;67442;44.570;18.610;2023-04-01T10:25:33;22.70;64.30
78184;DHT22;67442;44.570;18.610;2023-04-01T10:33:53;22.70;64.00
78184;DHT22;67442;44.570;18.610;2023-04-01T11:15:55;22.70;63.20
78184;DHT22;67442;44.570;18.610;2023-04-01T11:38:19;22.70;62.90
78184;DHT22;67442;44.570;18.610;2023-04-01T11:44:11;22.80;62.90
78184;DHT22;67442;44.570;18.610;2023-04-01T11:55:22;22.80;62.90
78184;DHT22;67442;44.570;18.610;2023-04-01T11:57:53;22.80;62.90
78184;DHT22;67442;44.570;18.610;2023-04-01T12:04:00;22.80;62.90
78184;DHT22;67442;44.570;18.610;2023-04-01T12:15:30;22.70;62.70
78184;DHT22;67442;44.570;18.610;2023-04-01T12:36:00;22.70;62.60
78184;DHT22;67442;44.570;18.610;2023-04-01T12:52:49;22.80;62.60
78184;DHT22;67442;44.570;18.610;2023-04-01T12:55:40;22.80;62.50
78184;DHT22;67442;44.570;18.610;2023-04-01T13:04:33;22.80;62.50
78184;DHT22;67442;44.570;18.610;2023-04-01T13:10:12;22.80;62.50
78184;DHT22;67442;44.570;18.610;2023-04-01T13:13:05;22.80;62.50
78184;DHT22;67442;44.570;18.610;2023-04-01T13:21:30;22.80;62.40
78184;DHT22;67442;44.570;18.610;2023-04-01T13:24:30;22.80;62.30
78184;DHT22;67442;44.570;18.610;2023-04-01T13:27:12;22.80;62.30
78184;DHT22;67442;44.570;18.610;2023-04-01T13:32:30;22.80;62.30
78184;DHT22;67442;44.570;18.610;2023-04-01T13:35:17;22.80;62.30
78184;DHT22;67442;44.570;18.610;2023-04-01T13:57:43;22.80;62.50
78184;DHT22;67442;44.570;18.610;2023-04-01T14:03:44;22.90;62.60
78184;DHT22;67442;44.570;18.610;2023-04-01T14:39:39;22.90;62.60
78184;DHT22;67442;44.570;18.610;2023-04-01T14:42:23;22.90;62.00
78184;DHT22;67442;44.570;18.610;2023-04-01T14:47:48;22.80;60.30
78184;DHT22;67442;44.570;18.610;2023-04-01T14:50:22;22.70;59.60
78184;DHT22;67442;44.570;18.610;2023-04-01T14:58:17;22.60;59.00
78184;DHT22;67442;44.570;18.610;2023-04-01T15:06:07;22.60;58.20
78184;DHT22;67442;44.570;18.610;2023-04-01T15:15:16;22.50;57.50
78184;DHT22;67442;44.570;18.610;2023-04-01T15:23:21;22.40;57.20
78184;DHT22;67442;44.570;18.610;2023-04-01T15:32:16;22.30;57.30
78184;DHT22;67442;44.570;18.610;2023-04-01T15:40:15;22.30;56.80
78184;DHT22;67442;44.570;18.610;2023-04-01T15:53:50;22.20;56.00
78184;DHT22;67442;44.570;18.610;2023-04-01T15:59:18;22.20;56.20
78184;DHT22;67442;44.570;18.610;2023-04-01T16:07:58;22.20;56.40
78184;DHT22;67442;44.570;18.610;2023-04-01T16:18:37;22.20;55.90
78184;DHT22;67442;44.570;18.610;2023-04-01T16:21:37;22.10;55.60
78184;DHT22;67442;44.570;18.610;2023-04-01T16:24:17;22.10;55.60
78184;DHT22;67442;44.570;18.610;2023-04-01T16:26:58;22.10;55.50
78184;DHT22;67442;44.570;18.610;2023-04-01T16:29:52;22.10;55.50
78184;DHT22;67442;44.570;18.610;2023-04-01T16:41:17;21.80;55.00
78184;DHT22;67442;44.570;18.610;2023-04-01T16:43:55;21.90;56.30
78184;DHT22;67442;44.570;18.610;2023-04-01T16:46:38;21.90;56.30
78184;DHT22;67442;44.570;18.610;2023-04-01T16:51:48;22.00;56.20
78184;DHT22;67442;44.570;18.610;2023-04-01T16:57:15;22.00;56.20
78184;DHT22;67442;44.570;18.610;2023-04-01T17:02:39;22.10;56.80
78184;DHT22;67442;44.570;18.610;2023-04-01T17:05:14;22.10;57.00
78184;DHT22;67442;44.570;18.610;2023-04-01T17:19:27;22.20;57.90
78184;DHT22;67442;44.570;18.610;2023-04-01T17:24:56;22.30;58.20
78184;DHT22;67442;44.570;18.610;2023-04-01T17:30:32;22.30;58.50
78184;DHT22;67442;44.570;18.610;2023-04-01T17:33:17;22.30;58.60
78184;DHT22;67442;44.570;18.610;2023-04-01T17:38:57;22.40;59.50
78184;DHT22;67442;44.570;18.610;2023-04-01T17:41:53;22.40;59.00
78184;DHT22;67442;44.570;18.610;2023-04-01T17:52:39;22.50;59.30
78184;DHT22;67442;44.570;18.610;2023-04-01T17:58:46;22.50;59.40
78184;DHT22;67442;44.570;18.610;2023-04-01T18:01:38;22.50;59.50
78184;DHT22;67442;44.570;18.610;2023-04-01T18:20:36;22.60;59.90
78184;DHT22;67442;44.570;18.610;2023-04-01T18:23:43;22.60;59.90
78184;DHT22;67442;44.570;18.610;2023-04-01T18:26:39;22.60;60.00
78184;DHT22;67442;44.570;18.610;2023-04-01T18:29:26;22.60;60.00
78184;DHT22;67442;44.570;18.610;2023-04-01T18:32:35;22.60;60.10
78184;DHT22;67442;44.570;18.610;2023-04-01T18:40:40;22.70;60.20
78184;DHT22;67442;44.570;18.610;2023-04-01T18:43:22;22.70;60.20
78184;DHT22;67442;44.570;18.610;2023-04-01T18:46:38;22.70;60.40
78184;DHT22;67442;44.570;18.610;2023-04-01T18:52:24;22.70;60.50
78184;DHT22;67442;44.570;18.610;2023-04-01T18:57:42;22.70;60.50
78184;DHT22;67442;44.570;18.610;2023-04-01T19:00:36;22.70;60.50
78184;DHT22;67442;44.570;18.610;2023-04-01T19:03:31;22.70;60.60
78184;DHT22;67442;44.570;18.610;2023-04-01T19:06:02;22.70;60.70
78184;DHT22;67442;44.570;18.610;2023-04-01T19:08:39;22.70;60.70
78184;DHT22;67442;44.570;18.610;2023-04-01T19:11:23;22.70;60.70
78184;DHT22;67442;44.570;18.610;2023-04-01T19:16:55;22.70;60.80
78184;DHT22;67442;44.570;18.610;2023-04-01T19:19:52;22.80;60.90
78184;DHT22;67442;44.570;18.610;2023-04-01T19:28:15;22.80;61.00
78184;DHT22;67442;44.570;18.610;2023-04-01T19:36:17;22.90;61.10
78184;DHT22;67442;44.570;18.610;2023-04-01T19:46:49;22.90;61.20
78184;DHT22;67442;44.570;18.610;2023-04-01T19:52:14;22.90;61.20
78184;DHT22;67442;44.570;18.610;2023-04-01T19:54:56;22.90;61.20
78184;DHT22;67442;44.570;18.610;2023-04-01T19:57:52;22.90;61.20
78184;DHT22;67442;44.570;18.610;2023-04-01T20:00:57;23.00;61.20
78184;DHT22;67442;44.570;18.610;2023-04-01T20:03:45;23.00;61.20
78184;DHT22;67442;44.570;18.610;2023-04-01T20:11:38;23.00;61.10
78184;DHT22;67442;44.570;18.610;2023-04-01T20:14:22;23.00;61.20
78184;DHT22;67442;44.570;18.610;2023-04-01T20:17:07;23.00;61.10
78184;DHT22;67442;44.570;18.610;2023-04-01T20:19:48;23.00;61.20
78184;DHT22;67442;44.570;18.610;2023-04-01T20:23:16;23.00;61.20
78184;DHT22;67442;44.570;18.610;2023-04-01T20:25:45;23.00;61.20
78184;DHT22;67442;44.570;18.610;2023-04-01T20:48:38;23.00;61.40
78184;DHT22;67442;44.570;18.610;2023-04-01T20:51:26;23.00;61.50
78184;DHT22;67442;44.570;18.610;2023-04-01T21:05:59;23.10;61.70
78184;DHT22;67442;44.570;18.610;2023-04-01T21:31:27;23.10;61.70
78184;DHT22;67442;44.570;18.610;2023-04-01T21:42:55;23.00;61.60
78184;DHT22;67442;44.570;18.610;2023-04-01T21:54:20;23.00;61.60
78184;DHT22;67442;44.570;18.610;2023-04-01T22:05:51;23.00;61.70
78184;DHT22;67442;44.570;18.610;2023-04-01T22:11:10;23.00;61.70
78184;DHT22;67442;44.570;18.610;2023-04-01T22:24:25;23.00;61.80
78184;DHT22;67442;44.570;18.610;2023-04-01T22:27:06;22.90;61.80
78184;DHT22;67442;44.570;18.610;2023-04-01T22:29:58;22.90;61.80
78184;DHT22;67442;44.570;18.610;2023-04-01T22:40:44;22.90;61.80
78184;DHT22;67442;44.570;18.610;2023-04-01T22:43:38;22.90;61.80
78184;DHT22;67442;44.570;18.610;2023-04-01T22:46:12;22.90;62.00
78184;DHT22;67442;44.570;18.610;2023-04-01T22:48:52;22.90;61.80
78184;DHT22;67442;44.570;18.610;2023-04-01T22:51:54;22.90;61.80
78184;DHT22;67442;44.570;18.610;2023-04-01T23:01:01;22.90;61.80
78184;DHT22;67442;44.570;18.610;2023-04-01T23:03:30;22.90;61.80
78184;DHT22;67442;44.570;18.610;2023-04-01T23:06:02;22.90;61.90
78184;DHT22;67442;44.570;18.610;2023-04-01T23:11:33;22.90;61.90
78184;DHT22;67442;44.570;18.610;2023-04-01T23:26:21;22.90;61.90
78184;DHT22;67442;44.570;18.610;2023-04-01T23:28:54;22.90;61.90
78184;DHT22;67442;44.570;18.610;2023-04-01T23:31:45;22.90;61.80
78184;DHT22;67442;44.570;18.610;2023-04-01T23:36:46;22.90;61.80
78184;DHT22;67442;44.570;18.610;2023-04-01T23:39:38;22.90;61.80
78184;DHT22;67442;44.570;18.610;2023-04-01T23:44:46;22.90;61.80
78184;DHT22;67442;44.570;18.610;2023-04-01T23:47:33;22.90;61.90
78184;DHT22;67442;44.570;18.610;2023-04-01T23:50:20;22.90;61.90
78184;DHT22;67442;44.570;18.610;2023-04-01T23:55:28;22.90;61.90
78184;DHT22;67442;44.570;18.610;2023-04-01T23:58:26;22.90;61.90
